sensor_id;sensor_type;location;lat;lon;timestamp;temperature;humidity
9802;DHT22;4940;50.900;4.672;2023-06-10T00:00:43;23.60;87.30
9802;DHT22;4940;50.900;4.672;2023-06-10T00:03:10;23.60;87.60
9802;DHT22;4940;50.900;4.672;2023-06-10T00:05:38;23.50;87.70
9802;DHT22;4940;50.900;4.672;2023-06-10T00:08:05;23.50;87.70
9802;DHT22;4940;50.900;4.672;2023-06-10T00:10:34;23.50;87.70
9802;DHT22;4940;50.900;4.672;2023-06-10T00:13:02;23.40;87.60
9802;DHT22;4940;50.900;4.672;2023-06-10T00:15:31;23.40;86.90
9802;DHT22;4940;50.900;4.672;2023-06-10T00:17:58;23.20;87.50
9802;DHT22;4940;50.900;4.672;2023-06-10T00:20:27;23.40;87.90
9802;DHT22;4940;50.900;4.672;2023-06-10T00:22:54;23.30;88.10
9802;DHT22;4940;50.900;4.672;2023-06-10T00:25:23;23.30;88.30
9802;DHT22;4940;50.900;4.672;2023-06-10T00:27:52;23.20;88.40
9802;DHT22;4940;50.900;4.672;2023-06-10T00:30:19;23.10;88.50
9802;DHT22;4940;50.900;4.672;2023-06-10T00:32:48;23.30;88.80
9802;DHT22;4940;50.900;4.672;2023-06-10T00:35:16;23.10;88.80
9802;DHT22;4940;50.900;4.672;2023-06-10T00:37:43;23.00;89.60
9802;DHT22;4940;50.900;4.672;2023-06-10T00:40:11;23.00;89.10
9802;DHT22;4940;50.900;4.672;2023-06-10T00:42:38;22.90;89.20
9802;DHT22;4940;50.900;4.672;2023-06-10T00:45:06;22.90;89.50
9802;DHT22;4940;50.900;4.672;2023-06-10T00:47:34;22.80;89.90
9802;DHT22;4940;50.900;4.672;2023-06-10T00:50:04;22.70;90.00
9802;DHT22;4940;50.900;4.672;2023-06-10T00:52:32;22.70;90.10
9802;DHT22;4940;50.900;4.672;2023-06-10T00:55:00;22.50;89.60
9802;DHT22;4940;50.900;4.672;2023-06-10T00:57:27;22.50;90.20
9802;DHT22;4940;50.900;4.672;2023-06-10T00:59:55;22.50;90.50
9802;DHT22;4940;50.900;4.672;2023-06-10T01:02:24;22.40;90.50
9802;DHT22;4940;50.900;4.672;2023-06-10T01:04:51;22.40;90.60
9802;DHT22;4940;50.900;4.672;2023-06-10T01:07:24;22.40;90.70
9802;DHT22;4940;50.900;4.672;2023-06-10T01:09:58;22.20;90.50
9802;DHT22;4940;50.900;4.672;2023-06-10T01:12:33;22.20;91.00
9802;DHT22;4940;50.900;4.672;2023-06-10T01:15:01;22.20;91.10
9802;DHT22;4940;50.900;4.672;2023-06-10T01:17:30;22.10;91.20
9802;DHT22;4940;50.900;4.672;2023-06-10T01:19:57;22.10;91.70
9802;DHT22;4940;50.900;4.672;2023-06-10T01:22:27;21.90;91.40
9802;DHT22;4940;50.900;4.672;2023-06-10T01:24:58;21.80;91.50
9802;DHT22;4940;50.900;4.672;2023-06-10T01:27:33;21.80;91.60
9802;DHT22;4940;50.900;4.672;2023-06-10T01:30:11;21.70;91.50
9802;DHT22;4940;50.900;4.672;2023-06-10T01:32:44;21.70;91.80
9802;DHT22;4940;50.900;4.672;2023-06-10T01:35:12;21.60;91.90
9802;DHT22;4940;50.900;4.672;2023-06-10T01:37:43;21.60;92.10
9802;DHT22;4940;50.900;4.672;2023-06-10T01:40:12;21.50;92.20
9802;DHT22;4940;50.900;4.672;2023-06-10T01:42:40;21.40;92.30
9802;DHT22;4940;50.900;4.672;2023-06-10T01:45:08;21.20;92.40
9802;DHT22;4940;50.900;4.672;2023-06-10T01:47:36;21.30;92.60
9802;DHT22;4940;50.900;4.672;2023-06-10T01:50:04;21.30;92.70
9802;DHT22;4940;50.900;4.672;2023-06-10T01:52:31;21.20;92.70
9802;DHT22;4940;50.900;4.672;2023-06-10T01:55:00;21.20;92.90
9802;DHT22;4940;50.900;4.672;2023-06-10T01:57:27;21.20;93.00
9802;DHT22;4940;50.900;4.672;2023-06-10T01:59:54;21.10;93.00
9802;DHT22;4940;50.900;4.672;2023-06-10T02:02:22;21.10;93.10
9802;DHT22;4940;50.900;4.672;2023-06-10T02:04:50;21.10;93.20
9802;DHT22;4940;50.900;4.672;2023-06-10T02:07:18;21.00;93.20
9802;DHT22;4940;50.900;4.672;2023-06-10T02:09:45;21.00;92.90
9802;DHT22;4940;50.900;4.672;2023-06-10T02:12:14;21.00;93.30
9802;DHT22;4940;50.900;4.672;2023-06-10T02:14:41;20.90;93.00
9802;DHT22;4940;50.900;4.672;2023-06-10T02:17:08;21.00;93.20
9802;DHT22;4940;50.900;4.672;2023-06-10T02:19:38;20.90;93.50
9802;DHT22;4940;50.900;4.672;2023-06-10T02:22:08;20.90;93.60
9802;DHT22;4940;50.900;4.672;2023-06-10T02:24:36;20.90;93.60
9802;DHT22;4940;50.900;4.672;2023-06-10T02:27:04;20.80;93.70
9802;DHT22;4940;50.900;4.672;2023-06-10T02:29:35;20.80;93.80
9802;DHT22;4940;50.900;4.672;2023-06-10T02:32:03;20.80;93.90
9802;DHT22;4940;50.900;4.672;2023-06-10T02:34:30;20.70;93.80
9802;DHT22;4940;50.900;4.672;2023-06-10T02:36:58;21.00;94.10
9802;DHT22;4940;50.900;4.672;2023-06-10T02:39:25;20.80;94.10
9802;DHT22;4940;50.900;4.672;2023-06-10T02:41:52;20.70;94.10
9802;DHT22;4940;50.900;4.672;2023-06-10T02:44:20;20.90;94.60
9802;DHT22;4940;50.900;4.672;2023-06-10T02:46:48;20.70;94.20
9802;DHT22;4940;50.900;4.672;2023-06-10T02:49:16;20.70;94.30
9802;DHT22;4940;50.900;4.672;2023-06-10T02:51:43;20.70;94.30
9802;DHT22;4940;50.900;4.672;2023-06-10T02:54:11;20.80;94.40
9802;DHT22;4940;50.900;4.672;2023-06-10T02:56:38;20.80;94.10
9802;DHT22;4940;50.900;4.672;2023-06-10T02:59:07;20.70;94.30
9802;DHT22;4940;50.900;4.672;2023-06-10T03:01:35;20.70;94.20
9802;DHT22;4940;50.900;4.672;2023-06-10T03:04:04;20.80;94.50
9802;DHT22;4940;50.900;4.672;2023-06-10T03:06:32;20.70;94.20
9802;DHT22;4940;50.900;4.672;2023-06-10T03:09:01;20.70;94.50
9802;DHT22;4940;50.900;4.672;2023-06-10T03:11:30;20.60;94.20
9802;DHT22;4940;50.900;4.672;2023-06-10T03:13:57;20.40;94.20
9802;DHT22;4940;50.900;4.672;2023-06-10T03:16:24;20.60;94.70
9802;DHT22;4940;50.900;4.672;2023-06-10T03:18:53;20.60;94.80
9802;DHT22;4940;50.900;4.672;2023-06-10T03:21:22;20.60;94.90
9802;DHT22;4940;50.900;4.672;2023-06-10T03:23:49;20.50;95.00
9802;DHT22;4940;50.900;4.672;2023-06-10T03:26:16;20.50;95.10
9802;DHT22;4940;50.900;4.672;2023-06-10T03:28:47;20.40;95.20
9802;DHT22;4940;50.900;4.672;2023-06-10T03:31:15;20.30;95.20
9802;DHT22;4940;50.900;4.672;2023-06-10T03:33:43;20.40;95.20
9802;DHT22;4940;50.900;4.672;2023-06-10T03:36:11;20.30;95.30
9802;DHT22;4940;50.900;4.672;2023-06-10T03:38:39;20.30;95.40
9802;DHT22;4940;50.900;4.672;2023-06-10T03:41:06;20.30;95.50
9802;DHT22;4940;50.900;4.672;2023-06-10T03:43:34;20.20;95.20
9802;DHT22;4940;50.900;4.672;2023-06-10T03:46:01;20.20;95.70
9802;DHT22;4940;50.900;4.672;2023-06-10T03:48:29;20.10;95.50
9802;DHT22;4940;50.900;4.672;2023-06-10T03:50:56;20.10;95.90
9802;DHT22;4940;50.900;4.672;2023-06-10T03:53:24;20.10;96.00
9802;DHT22;4940;50.900;4.672;2023-06-10T03:55:53;20.00;96.10
9802;DHT22;4940;50.900;4.672;2023-06-10T03:58:20;20.00;96.20
9802;DHT22;4940;50.900;4.672;2023-06-10T04:00:47;19.90;96.30
9802;DHT22;4940;50.900;4.672;2023-06-10T04:03:15;19.90;96.20
9802;DHT22;4940;50.900;4.672;2023-06-10T04:05:42;19.90;96.60
9802;DHT22;4940;50.900;4.672;2023-06-10T04:08:10;19.80;96.40
9802;DHT22;4940;50.900;4.672;2023-06-10T04:10:37;19.80;97.10
9802;DHT22;4940;50.900;4.672;2023-06-10T04:13:06;19.80;97.00
9802;DHT22;4940;50.900;4.672;2023-06-10T04:15:33;19.80;97.20
9802;DHT22;4940;50.900;4.672;2023-06-10T04:18:00;19.80;97.30
9802;DHT22;4940;50.900;4.672;2023-06-10T04:20:28;19.80;97.20
9802;DHT22;4940;50.900;4.672;2023-06-10T04:22:55;20.00;97.60
9802;DHT22;4940;50.900;4.672;2023-06-10T04:25:23;19.80;97.40
9802;DHT22;4940;50.900;4.672;2023-06-10T04:27:50;19.80;97.70
9802;DHT22;4940;50.900;4.672;2023-06-10T04:30:19;19.80;97.90
9802;DHT22;4940;50.900;4.672;2023-06-10T04:32:47;19.90;98.10
9802;DHT22;4940;50.900;4.672;2023-06-10T04:35:16;19.80;97.90
9802;DHT22;4940;50.900;4.672;2023-06-10T04:37:44;19.80;98.10
9802;DHT22;4940;50.900;4.672;2023-06-10T04:40:12;19.90;98.50
9802;DHT22;4940;50.900;4.672;2023-06-10T04:42:39;19.90;98.60
9802;DHT22;4940;50.900;4.672;2023-06-10T04:45:07;19.90;98.70
9802;DHT22;4940;50.900;4.672;2023-06-10T04:47:36;20.00;98.60
9802;DHT22;4940;50.900;4.672;2023-06-10T04:50:04;19.90;98.90
9802;DHT22;4940;50.900;4.672;2023-06-10T04:52:32;20.00;98.80
9802;DHT22;4940;50.900;4.672;2023-06-10T04:55:00;20.10;98.80
9802;DHT22;4940;50.900;4.672;2023-06-10T04:57:28;20.10;99.20
9802;DHT22;4940;50.900;4.672;2023-06-10T04:59:55;20.10;99.30
9802;DHT22;4940;50.900;4.672;2023-06-10T05:02:22;20.20;99.40
9802;DHT22;4940;50.900;4.672;2023-06-10T05:04:51;20.30;99.20
9802;DHT22;4940;50.900;4.672;2023-06-10T05:07:19;20.30;99.50
9802;DHT22;4940;50.900;4.672;2023-06-10T05:09:47;20.40;99.30
9802;DHT22;4940;50.900;4.672;2023-06-10T05:12:14;20.40;99.60
9802;DHT22;4940;50.900;4.672;2023-06-10T05:14:41;20.40;99.50
9802;DHT22;4940;50.900;4.672;2023-06-10T05:17:10;20.50;99.20
9802;DHT22;4940;50.900;4.672;2023-06-10T05:19:38;20.50;99.50
9802;DHT22;4940;50.900;4.672;2023-06-10T05:22:08;20.50;99.40
9802;DHT22;4940;50.900;4.672;2023-06-10T05:24:36;20.60;99.40
9802;DHT22;4940;50.900;4.672;2023-06-10T05:27:03;20.50;99.40
9802;DHT22;4940;50.900;4.672;2023-06-10T05:29:32;20.80;99.50
9802;DHT22;4940;50.900;4.672;2023-06-10T05:32:00;20.80;99.40
9802;DHT22;4940;50.900;4.672;2023-06-10T05:34:28;20.90;99.40
9802;DHT22;4940;50.900;4.672;2023-06-10T05:36:56;21.00;99.40
9802;DHT22;4940;50.900;4.672;2023-06-10T05:39:25;21.10;99.40
9802;DHT22;4940;50.900;4.672;2023-06-10T05:41:52;21.30;99.00
9802;DHT22;4940;50.900;4.672;2023-06-10T05:44:19;21.40;99.50
9802;DHT22;4940;50.900;4.672;2023-06-10T05:46:47;21.70;98.80
9802;DHT22;4940;50.900;4.672;2023-06-10T05:49:14;21.80;98.60
9802;DHT22;4940;50.900;4.672;2023-06-10T05:51:42;21.80;98.80
9802;DHT22;4940;50.900;4.672;2023-06-10T05:54:09;22.00;98.70
9802;DHT22;4940;50.900;4.672;2023-06-10T05:56:38;22.20;98.40
9802;DHT22;4940;50.900;4.672;2023-06-10T05:59:05;22.40;98.20
9802;DHT22;4940;50.900;4.672;2023-06-10T06:01:32;22.50;98.00
9802;DHT22;4940;50.900;4.672;2023-06-10T06:03:59;22.70;97.60
9802;DHT22;4940;50.900;4.672;2023-06-10T06:06:27;22.80;97.50
9802;DHT22;4940;50.900;4.672;2023-06-10T06:08:54;23.00;97.30
9802;DHT22;4940;50.900;4.672;2023-06-10T06:11:22;23.10;97.20
9802;DHT22;4940;50.900;4.672;2023-06-10T06:13:51;23.30;97.00
9802;DHT22;4940;50.900;4.672;2023-06-10T06:16:18;23.40;96.90
9802;DHT22;4940;50.900;4.672;2023-06-10T06:18:46;23.60;96.70
9802;DHT22;4940;50.900;4.672;2023-06-10T06:21:13;23.80;96.60
9802;DHT22;4940;50.900;4.672;2023-06-10T06:23:40;23.90;96.40
9802;DHT22;4940;50.900;4.672;2023-06-10T06:26:07;24.00;96.20
9802;DHT22;4940;50.900;4.672;2023-06-10T06:28:35;24.50;95.60
9802;DHT22;4940;50.900;4.672;2023-06-10T06:31:04;24.60;95.50
9802;DHT22;4940;50.900;4.672;2023-06-10T06:33:31;24.80;95.20
9802;DHT22;4940;50.900;4.672;2023-06-10T06:35:58;24.90;95.20
9802;DHT22;4940;50.900;4.672;2023-06-10T06:38:26;25.10;94.20
9802;DHT22;4940;50.900;4.672;2023-06-10T06:40:53;25.10;94.90
9802;DHT22;4940;50.900;4.672;2023-06-10T06:43:21;25.20;94.50
9802;DHT22;4940;50.900;4.672;2023-06-10T06:45:48;25.40;94.30
9802;DHT22;4940;50.900;4.672;2023-06-10T06:48:16;25.60;94.50
9802;DHT22;4940;50.900;4.672;2023-06-10T06:50:44;25.90;93.80
9802;DHT22;4940;50.900;4.672;2023-06-10T06:53:12;26.00;93.80
9802;DHT22;4940;50.900;4.672;2023-06-10T06:55:39;26.30;93.50
9802;DHT22;4940;50.900;4.672;2023-06-10T06:58:07;26.80;92.90
9802;DHT22;4940;50.900;4.672;2023-06-10T07:00:34;26.90;92.90
9802;DHT22;4940;50.900;4.672;2023-06-10T07:03:01;27.40;92.40
9802;DHT22;4940;50.900;4.672;2023-06-10T07:05:30;27.50;91.80
9802;DHT22;4940;50.900;4.672;2023-06-10T07:07:57;28.30;91.20
9802;DHT22;4940;50.900;4.672;2023-06-10T07:10:25;28.90;90.50
9802;DHT22;4940;50.900;4.672;2023-06-10T07:12:53;28.90;90.10
9802;DHT22;4940;50.900;4.672;2023-06-10T07:15:20;29.70;88.00
9802;DHT22;4940;50.900;4.672;2023-06-10T07:17:47;29.80;87.70
9802;DHT22;4940;50.900;4.672;2023-06-10T07:20:15;30.10;86.80
9802;DHT22;4940;50.900;4.672;2023-06-10T07:22:44;30.50;86.40
9802;DHT22;4940;50.900;4.672;2023-06-10T07:25:11;30.90;85.30
9802;DHT22;4940;50.900;4.672;2023-06-10T07:27:38;31.50;83.60
9802;DHT22;4940;50.900;4.672;2023-06-10T07:30:06;31.70;81.70
9802;DHT22;4940;50.900;4.672;2023-06-10T07:32:34;32.00;81.20
9802;DHT22;4940;50.900;4.672;2023-06-10T07:35:01;32.50;80.50
9802;DHT22;4940;50.900;4.672;2023-06-10T07:37:29;32.80;79.20
9802;DHT22;4940;50.900;4.672;2023-06-10T07:39:58;33.00;78.00
9802;DHT22;4940;50.900;4.672;2023-06-10T07:42:25;33.20;78.10
9802;DHT22;4940;50.900;4.672;2023-06-10T07:44:52;33.40;77.00
9802;DHT22;4940;50.900;4.672;2023-06-10T07:47:19;33.90;77.30
9802;DHT22;4940;50.900;4.672;2023-06-10T07:49:47;34.20;76.60
9802;DHT22;4940;50.900;4.672;2023-06-10T07:52:14;34.50;76.10
9802;DHT22;4940;50.900;4.672;2023-06-10T07:54:42;34.90;75.90
9802;DHT22;4940;50.900;4.672;2023-06-10T07:57:10;35.10;73.80
9802;DHT22;4940;50.900;4.672;2023-06-10T07:59:38;35.40;73.00
9802;DHT22;4940;50.900;4.672;2023-06-10T08:02:05;35.70;71.90
9802;DHT22;4940;50.900;4.672;2023-06-10T08:04:33;35.90;72.40
9802;DHT22;4940;50.900;4.672;2023-06-10T08:07:01;36.10;70.20
9802;DHT22;4940;50.900;4.672;2023-06-10T08:09:29;36.30;69.20
9802;DHT22;4940;50.900;4.672;2023-06-10T08:11:56;36.40;68.80
9802;DHT22;4940;50.900;4.672;2023-06-10T08:14:25;36.50;68.40
9802;DHT22;4940;50.900;4.672;2023-06-10T08:16:52;36.70;68.30
9802;DHT22;4940;50.900;4.672;2023-06-10T08:19:19;36.80;67.00
9802;DHT22;4940;50.900;4.672;2023-06-10T08:21:47;36.90;66.30
9802;DHT22;4940;50.900;4.672;2023-06-10T08:24:14;37.10;66.20
9802;DHT22;4940;50.900;4.672;2023-06-10T08:26:43;37.20;66.10
9802;DHT22;4940;50.900;4.672;2023-06-10T08:29:12;37.20;65.90
9802;DHT22;4940;50.900;4.672;2023-06-10T08:31:43;37.40;65.80
9802;DHT22;4940;50.900;4.672;2023-06-10T08:34:10;37.70;64.40
9802;DHT22;4940;50.900;4.672;2023-06-10T08:36:38;37.90;64.50
9802;DHT22;4940;50.900;4.672;2023-06-10T08:39:05;38.20;63.30
9802;DHT22;4940;50.900;4.672;2023-06-10T08:41:35;38.20;63.30
9802;DHT22;4940;50.900;4.672;2023-06-10T08:44:10;38.40;61.90
9802;DHT22;4940;50.900;4.672;2023-06-10T08:46:45;38.40;61.50
9802;DHT22;4940;50.900;4.672;2023-06-10T08:49:18;38.60;61.50
9802;DHT22;4940;50.900;4.672;2023-06-10T08:51:48;38.50;61.20
9802;DHT22;4940;50.900;4.672;2023-06-10T08:54:20;38.70;60.80
9802;DHT22;4940;50.900;4.672;2023-06-10T08:56:49;38.80;60.60
9802;DHT22;4940;50.900;4.672;2023-06-10T08:59:18;38.90;59.70
9802;DHT22;4940;50.900;4.672;2023-06-10T09:01:48;39.00;59.60
9802;DHT22;4940;50.900;4.672;2023-06-10T09:04:17;39.10;58.90
9802;DHT22;4940;50.900;4.672;2023-06-10T09:06:46;39.30;58.80
9802;DHT22;4940;50.900;4.672;2023-06-10T09:09:15;39.40;58.00
9802;DHT22;4940;50.900;4.672;2023-06-10T09:11:42;39.50;57.40
9802;DHT22;4940;50.900;4.672;2023-06-10T09:14:09;39.60;57.60
9802;DHT22;4940;50.900;4.672;2023-06-10T09:16:38;39.60;56.60
9802;DHT22;4940;50.900;4.672;2023-06-10T09:19:07;39.50;57.30
9802;DHT22;4940;50.900;4.672;2023-06-10T09:21:35;39.50;57.30
9802;DHT22;4940;50.900;4.672;2023-06-10T09:24:03;39.60;57.40
9802;DHT22;4940;50.900;4.672;2023-06-10T09:26:30;39.70;57.60
9802;DHT22;4940;50.900;4.672;2023-06-10T09:29:03;39.90;56.80
9802;DHT22;4940;50.900;4.672;2023-06-10T09:31:30;40.00;56.50
9802;DHT22;4940;50.900;4.672;2023-06-10T09:34:07;40.20;56.60
9802;DHT22;4940;50.900;4.672;2023-06-10T09:36:35;40.30;57.30
9802;DHT22;4940;50.900;4.672;2023-06-10T09:39:03;40.30;56.10
9802;DHT22;4940;50.900;4.672;2023-06-10T09:41:35;40.40;55.60
9802;DHT22;4940;50.900;4.672;2023-06-10T09:44:12;40.30;56.40
9802;DHT22;4940;50.900;4.672;2023-06-10T09:46:41;40.10;56.50
9802;DHT22;4940;50.900;4.672;2023-06-10T09:49:10;40.20;56.40
9802;DHT22;4940;50.900;4.672;2023-06-10T09:51:37;40.00;56.40
9802;DHT22;4940;50.900;4.672;2023-06-10T09:54:05;40.00;55.80
9802;DHT22;4940;50.900;4.672;2023-06-10T09:56:35;40.00;55.60
9802;DHT22;4940;50.900;4.672;2023-06-10T09:59:03;40.00;56.30
9802;DHT22;4940;50.900;4.672;2023-06-10T10:01:32;40.00;55.60
9802;DHT22;4940;50.900;4.672;2023-06-10T10:04:00;39.90;55.50
9802;DHT22;4940;50.900;4.672;2023-06-10T10:06:29;39.90;55.00
9802;DHT22;4940;50.900;4.672;2023-06-10T10:08:57;39.80;54.70
9802;DHT22;4940;50.900;4.672;2023-06-10T10:11:24;39.60;54.20
9802;DHT22;4940;50.900;4.672;2023-06-10T10:13:53;39.60;54.10
9802;DHT22;4940;50.900;4.672;2023-06-10T10:16:21;39.70;55.10
9802;DHT22;4940;50.900;4.672;2023-06-10T10:18:54;39.80;54.80
9802;DHT22;4940;50.900;4.672;2023-06-10T10:21:23;39.90;54.70
9802;DHT22;4940;50.900;4.672;2023-06-10T10:23:57;39.90;55.50
9802;DHT22;4940;50.900;4.672;2023-06-10T10:26:27;39.90;54.20
9802;DHT22;4940;50.900;4.672;2023-06-10T10:29:02;39.90;53.40
9802;DHT22;4940;50.900;4.672;2023-06-10T10:31:33;39.80;54.10
9802;DHT22;4940;50.900;4.672;2023-06-10T10:34:06;39.60;53.50
9802;DHT22;4940;50.900;4.672;2023-06-10T10:36:34;39.60;54.00
9802;DHT22;4940;50.900;4.672;2023-06-10T10:39:04;39.60;54.60
9802;DHT22;4940;50.900;4.672;2023-06-10T10:41:32;39.70;52.50
9802;DHT22;4940;50.900;4.672;2023-06-10T10:44:01;39.50;52.70
9802;DHT22;4940;50.900;4.672;2023-06-10T10:46:42;39.40;52.60
9802;DHT22;4940;50.900;4.672;2023-06-10T10:49:09;39.20;53.00
9802;DHT22;4940;50.900;4.672;2023-06-10T10:51:37;39.10;53.20
9802;DHT22;4940;50.900;4.672;2023-06-10T10:54:13;38.90;52.70
9802;DHT22;4940;50.900;4.672;2023-06-10T10:57:09;38.90;52.70
9802;DHT22;4940;50.900;4.672;2023-06-10T10:59:44;38.90;53.90
9802;DHT22;4940;50.900;4.672;2023-06-10T11:02:15;39.00;53.00
9802;DHT22;4940;50.900;4.672;2023-06-10T11:04:46;39.10;52.90
9802;DHT22;4940;50.900;4.672;2023-06-10T11:07:13;39.20;53.60
9802;DHT22;4940;50.900;4.672;2023-06-10T11:09:57;39.30;51.60
9802;DHT22;4940;50.900;4.672;2023-06-10T11:12:25;39.30;51.40
9802;DHT22;4940;50.900;4.672;2023-06-10T11:14:54;39.00;51.10
9802;DHT22;4940;50.900;4.672;2023-06-10T11:17:22;38.90;51.30
9802;DHT22;4940;50.900;4.672;2023-06-10T11:19:49;39.00;51.40
9802;DHT22;4940;50.900;4.672;2023-06-10T11:22:17;39.00;51.80
9802;DHT22;4940;50.900;4.672;2023-06-10T11:24:48;38.80;50.60
9802;DHT22;4940;50.900;4.672;2023-06-10T11:27:18;38.70;50.40
9802;DHT22;4940;50.900;4.672;2023-06-10T11:29:58;38.40;52.20
9802;DHT22;4940;50.900;4.672;2023-06-10T11:32:44;38.30;52.30
9802;DHT22;4940;50.900;4.672;2023-06-10T11:35:12;38.00;51.90
9802;DHT22;4940;50.900;4.672;2023-06-10T11:37:39;38.00;51.60
9802;DHT22;4940;50.900;4.672;2023-06-10T11:40:07;38.00;51.70
9802;DHT22;4940;50.900;4.672;2023-06-10T11:42:40;37.90;52.00
9802;DHT22;4940;50.900;4.672;2023-06-10T11:45:08;37.70;52.40
9802;DHT22;4940;50.900;4.672;2023-06-10T11:47:35;37.60;52.30
9802;DHT22;4940;50.900;4.672;2023-06-10T11:50:03;37.70;51.80
9802;DHT22;4940;50.900;4.672;2023-06-10T11:52:31;37.70;52.60
9802;DHT22;4940;50.900;4.672;2023-06-10T11:55:04;37.80;51.60
9802;DHT22;4940;50.900;4.672;2023-06-10T11:57:34;37.70;51.60
9802;DHT22;4940;50.900;4.672;2023-06-10T12:00:06;37.70;51.50
9802;DHT22;4940;50.900;4.672;2023-06-10T12:02:34;37.60;51.40
9802;DHT22;4940;50.900;4.672;2023-06-10T12:05:10;37.40;51.50
9802;DHT22;4940;50.900;4.672;2023-06-10T12:07:38;37.20;52.00
9802;DHT22;4940;50.900;4.672;2023-06-10T12:10:05;36.90;52.20
9802;DHT22;4940;50.900;4.672;2023-06-10T12:12:34;36.50;51.90
9802;DHT22;4940;50.900;4.672;2023-06-10T12:15:02;36.40;52.30
9802;DHT22;4940;50.900;4.672;2023-06-10T12:17:38;36.30;52.50
9802;DHT22;4940;50.900;4.672;2023-06-10T12:20:07;36.30;51.70
9802;DHT22;4940;50.900;4.672;2023-06-10T12:22:38;36.20;51.90
9802;DHT22;4940;50.900;4.672;2023-06-10T12:25:07;36.20;52.10
9802;DHT22;4940;50.900;4.672;2023-06-10T12:27:36;36.30;52.60
9802;DHT22;4940;50.900;4.672;2023-06-10T12:30:05;36.20;51.40
9802;DHT22;4940;50.900;4.672;2023-06-10T12:32:40;36.20;51.50
9802;DHT22;4940;50.900;4.672;2023-06-10T12:35:09;36.00;50.60
9802;DHT22;4940;50.900;4.672;2023-06-10T12:40:05;36.10;51.20
9802;DHT22;4940;50.900;4.672;2023-06-10T12:42:33;36.10;51.60
9802;DHT22;4940;50.900;4.672;2023-06-10T12:45:03;36.00;51.90
9802;DHT22;4940;50.900;4.672;2023-06-10T12:47:32;36.00;51.90
9802;DHT22;4940;50.900;4.672;2023-06-10T12:50:03;36.20;52.40
9802;DHT22;4940;50.900;4.672;2023-06-10T12:52:31;36.00;53.20
9802;DHT22;4940;50.900;4.672;2023-06-10T12:54:58;35.90;53.10
9802;DHT22;4940;50.900;4.672;2023-06-10T12:57:26;35.90;52.40
9802;DHT22;4940;50.900;4.672;2023-06-10T12:59:54;35.80;52.30
9802;DHT22;4940;50.900;4.672;2023-06-10T13:02:26;35.70;52.70
9802;DHT22;4940;50.900;4.672;2023-06-10T13:04:53;35.70;53.70
9802;DHT22;4940;50.900;4.672;2023-06-10T13:07:22;35.60;53.50
9802;DHT22;4940;50.900;4.672;2023-06-10T13:09:51;35.50;53.20
9802;DHT22;4940;50.900;4.672;2023-06-10T13:12:18;35.50;53.40
9802;DHT22;4940;50.900;4.672;2023-06-10T13:14:45;35.40;53.80
9802;DHT22;4940;50.900;4.672;2023-06-10T13:17:12;35.30;53.10
9802;DHT22;4940;50.900;4.672;2023-06-10T13:19:40;35.00;53.20
9802;DHT22;4940;50.900;4.672;2023-06-10T13:22:08;35.00;53.50
9802;DHT22;4940;50.900;4.672;2023-06-10T13:24:39;35.00;53.80
9802;DHT22;4940;50.900;4.672;2023-06-10T13:27:06;34.90;53.30
9802;DHT22;4940;50.900;4.672;2023-06-10T13:29:34;34.90;53.60
9802;DHT22;4940;50.900;4.672;2023-06-10T13:32:01;34.80;54.20
9802;DHT22;4940;50.900;4.672;2023-06-10T13:34:28;34.80;54.00
9802;DHT22;4940;50.900;4.672;2023-06-10T13:36:56;34.70;54.20
9802;DHT22;4940;50.900;4.672;2023-06-10T13:39:23;34.70;53.90
9802;DHT22;4940;50.900;4.672;2023-06-10T13:41:52;34.70;54.00
9802;DHT22;4940;50.900;4.672;2023-06-10T13:44:19;34.70;54.00
9802;DHT22;4940;50.900;4.672;2023-06-10T13:46:47;34.60;53.70
9802;DHT22;4940;50.900;4.672;2023-06-10T13:49:14;34.60;53.70
9802;DHT22;4940;50.900;4.672;2023-06-10T13:51:41;34.50;54.50
9802;DHT22;4940;50.900;4.672;2023-06-10T13:54:09;34.40;54.70
9802;DHT22;4940;50.900;4.672;2023-06-10T13:56:37;34.40;53.90
9802;DHT22;4940;50.900;4.672;2023-06-10T13:59:06;34.30;54.00
9802;DHT22;4940;50.900;4.672;2023-06-10T14:01:33;34.40;54.40
9802;DHT22;4940;50.900;4.672;2023-06-10T14:04:01;34.40;55.00
9802;DHT22;4940;50.900;4.672;2023-06-10T14:06:28;34.40;54.60
9802;DHT22;4940;50.900;4.672;2023-06-10T14:08:56;34.30;54.40
9802;DHT22;4940;50.900;4.672;2023-06-10T14:11:23;34.20;54.50
9802;DHT22;4940;50.900;4.672;2023-06-10T14:13:51;34.20;54.30
9802;DHT22;4940;50.900;4.672;2023-06-10T14:16:19;34.10;54.70
9802;DHT22;4940;50.900;4.672;2023-06-10T14:18:47;34.10;54.70
9802;DHT22;4940;50.900;4.672;2023-06-10T14:21:15;34.30;55.10
9802;DHT22;4940;50.900;4.672;2023-06-10T14:23:43;34.10;54.40
9802;DHT22;4940;50.900;4.672;2023-06-10T14:26:11;34.10;54.80
9802;DHT22;4940;50.900;4.672;2023-06-10T14:28:38;34.10;54.50
9802;DHT22;4940;50.900;4.672;2023-06-10T14:31:06;34.00;54.30
9802;DHT22;4940;50.900;4.672;2023-06-10T14:33:34;34.00;54.50
9802;DHT22;4940;50.900;4.672;2023-06-10T14:36:02;34.00;55.60
9802;DHT22;4940;50.900;4.672;2023-06-10T14:38:29;33.90;54.50
9802;DHT22;4940;50.900;4.672;2023-06-10T14:40:56;33.90;53.80
9802;DHT22;4940;50.900;4.672;2023-06-10T14:43:24;33.80;53.80
9802;DHT22;4940;50.900;4.672;2023-06-10T14:45:51;33.80;54.50
9802;DHT22;4940;50.900;4.672;2023-06-10T14:48:18;33.70;54.20
9802;DHT22;4940;50.900;4.672;2023-06-10T14:50:47;33.70;54.20
9802;DHT22;4940;50.900;4.672;2023-06-10T14:53:16;33.70;54.80
9802;DHT22;4940;50.900;4.672;2023-06-10T14:55:44;33.70;54.50
9802;DHT22;4940;50.900;4.672;2023-06-10T14:58:11;33.70;54.40
9802;DHT22;4940;50.900;4.672;2023-06-10T15:00:39;33.80;54.80
9802;DHT22;4940;50.900;4.672;2023-06-10T15:03:06;33.60;55.50
9802;DHT22;4940;50.900;4.672;2023-06-10T15:05:33;33.60;55.50
9802;DHT22;4940;50.900;4.672;2023-06-10T15:08:04;33.50;55.10
9802;DHT22;4940;50.900;4.672;2023-06-10T15:10:32;33.60;55.10
9802;DHT22;4940;50.900;4.672;2023-06-10T15:12:59;33.50;55.10
9802;DHT22;4940;50.900;4.672;2023-06-10T15:15:27;33.50;55.40
9802;DHT22;4940;50.900;4.672;2023-06-10T15:20:22;33.40;55.30
9802;DHT22;4940;50.900;4.672;2023-06-10T15:22:49;33.20;55.10
9802;DHT22;4940;50.900;4.672;2023-06-10T15:25:19;33.20;55.10
9802;DHT22;4940;50.900;4.672;2023-06-10T15:27:46;33.20;55.20
9802;DHT22;4940;50.900;4.672;2023-06-10T15:30:14;33.10;55.30
9802;DHT22;4940;50.900;4.672;2023-06-10T15:32:41;33.10;56.10
9802;DHT22;4940;50.900;4.672;2023-06-10T15:35:09;33.30;56.20
9802;DHT22;4940;50.900;4.672;2023-06-10T15:37:37;33.10;55.90
9802;DHT22;4940;50.900;4.672;2023-06-10T15:40:06;33.10;55.60
9802;DHT22;4940;50.900;4.672;2023-06-10T15:42:35;33.00;55.90
9802;DHT22;4940;50.900;4.672;2023-06-10T15:45:02;33.00;55.70
9802;DHT22;4940;50.900;4.672;2023-06-10T15:47:30;33.00;55.80
9802;DHT22;4940;50.900;4.672;2023-06-10T15:49:57;33.00;55.90
9802;DHT22;4940;50.900;4.672;2023-06-10T15:52:25;32.90;55.90
9802;DHT22;4940;50.900;4.672;2023-06-10T15:54:52;32.80;55.90
9802;DHT22;4940;50.900;4.672;2023-06-10T15:57:20;32.90;56.70
9802;DHT22;4940;50.900;4.672;2023-06-10T15:59:48;32.90;56.30
9802;DHT22;4940;50.900;4.672;2023-06-10T16:02:15;32.80;56.40
9802;DHT22;4940;50.900;4.672;2023-06-10T16:04:43;32.80;56.60
9802;DHT22;4940;50.900;4.672;2023-06-10T16:07:11;32.80;56.70
9802;DHT22;4940;50.900;4.672;2023-06-10T16:09:38;32.80;56.00
9802;DHT22;4940;50.900;4.672;2023-06-10T16:12:06;32.80;55.90
9802;DHT22;4940;50.900;4.672;2023-06-10T16:14:33;32.80;56.10